Terminal Aerodrome Forecast
Issued by NWS

Home | Current Version | Previous Version | Text Only | Print | Product List | Glossary Off
Versions: 1 2 3 4 5 6 7 8 9 10 11 12 13 14 15 16 17 18 19

019
FTUS43 KBIS 161725
TAFDIK
TAF
KDIK 161725Z 1618/1718 36010KT 6SM -RA SCT006 OVC012
      TEMPO 1618/1621 3SM -RA BR BKN006 OVC012
     FM162100 33010KT P6SM OVC012
     FM170100 30006KT P6SM BKN025
     FM170600 27006KT P6SM SCT035
     FM171400 22006KT P6SM FEW100=

USA.gov is the U.S. government's official web portal to all federal, state and local government web resources and services.